Time;durP1;ratioP1;P1;durP2;ratioP2;P2;SDS_P1;SDS_P2;PMS_P1;PMS_P2;Temp;Humidity;BMP_temperature;BMP_pressure;BME280_temperature;BME280_humidity;BME280_pressure;Samples;Min_cycle;Max_cycle;Signal;HPM_P1;HPM_P2
2022/04/23 00:01:29;;;;;;;5.20;4.03;;;;;;;;;;5011848;28;20475;-77
2022/04/23 00:03:55;;;;;;;4.95;4.40;;;;;;;;;;4996318;28;20046;-77
2022/04/23 00:06:20;;;;;;;4.70;3.83;;;;;;;;;;5012084;28;20052;-77
2022/04/23 00:08:46;;;;;;;4.90;3.80;;;;;;;;;;4995788;28;20072;-77
2022/04/23 00:11:11;;;;;;;4.85;4.05;;;;;;;;;;4979754;28;20034;-77
2022/04/23 00:13:38;;;;;;;5.20;4.47;;;;;;;;;;4996174;28;20042;-77
2022/04/23 00:16:05;;;;;;;5.18;4.32;;;;;;;;;;5011677;28;20061;-77
2022/04/23 00:18:30;;;;;;;4.43;3.97;;;;;;;;;;5012477;28;20060;-77
2022/04/23 00:20:56;;;;;;;5.13;4.00;;;;;;;;;;5012108;28;20404;-77
2022/04/23 00:23:21;;;;;;;5.25;4.35;;;;;;;;;;5012450;28;20050;-77
2022/04/23 00:25:50;;;;;;;4.55;3.72;;;;;;;;;;5028467;28;20037;-77
2022/04/23 00:28:17;;;;;;;4.95;4.03;;;;;;;;;;5029416;28;20045;-77
2022/04/23 00:30:44;;;;;;;4.97;4.00;;;;;;;;;;5028056;28;20121;-77
2022/04/23 00:33:11;;;;;;;4.78;3.50;;;;;;;;;;5011929;28;20049;-77
2022/04/23 00:35:37;;;;;;;5.22;4.20;;;;;;;;;;5012316;28;20046;-77
2022/04/23 00:38:07;;;;;;;4.60;3.95;;;;;;;;;;5028774;28;20038;-77
2022/04/23 00:40:33;;;;;;;4.75;3.53;;;;;;;;;;5011892;28;20080;-77
2022/04/23 00:42:58;;;;;;;5.25;3.85;;;;;;;;;;4963558;28;20030;-77
2022/04/23 00:45:27;;;;;;;5.22;3.85;;;;;;;;;;4979255;28;20042;-77
2022/04/23 00:47:53;;;;;;;4.93;4.07;;;;;;;;;;4995446;28;20061;-77
2022/04/23 00:50:21;;;;;;;4.50;3.58;;;;;;;;;;5011856;28;20045;-77
2022/04/23 00:52:50;;;;;;;4.35;3.75;;;;;;;;;;5027786;28;20061;-77
2022/04/23 00:55:16;;;;;;;4.32;3.53;;;;;;;;;;5028228;28;20041;-77
2022/04/23 00:57:41;;;;;;;3.80;3.40;;;;;;;;;;5027052;28;20042;-77
2022/04/23 01:00:08;;;;;;;4.10;3.70;;;;;;;;;;5027698;28;20115;-77
2022/04/23 01:02:34;;;;;;;4.93;3.63;;;;;;;;;;5027715;28;20054;-76
2022/04/23 01:05:01;;;;;;;3.90;3.47;;;;;;;;;;5027561;28;20050;-77
2022/04/23 01:07:26;;;;;;;5.13;3.70;;;;;;;;;;5027936;28;20033;-77
2022/04/23 01:09:51;;;;;;;4.22;3.75;;;;;;;;;;5027641;28;20041;-77
2022/04/23 01:12:19;;;;;;;4.40;3.72;;;;;;;;;;5027791;28;20042;-77
2022/04/23 01:15:01;;;;;;;4.07;3.35;;;;;;;;;;5027708;28;20065;-77
2022/04/23 01:17:26;;;;;;;3.57;3.27;;;;;;;;;;5027787;28;20120;-77
2022/04/23 01:19:52;;;;;;;3.97;3.42;;;;;;;;;;5011121;28;20039;-77
2022/04/23 01:22:17;;;;;;;4.53;3.70;;;;;;;;;;5011326;28;20113;-77
2022/04/23 01:24:44;;;;;;;5.40;3.53;;;;;;;;;;4978647;28;20041;-77
2022/04/23 01:27:10;;;;;;;4.18;3.50;;;;;;;;;;5011069;28;20045;-77
2022/04/23 01:29:37;;;;;;;4.60;3.20;;;;;;;;;;4994968;28;20116;-77
2022/04/23 01:32:06;;;;;;;4.65;3.45;;;;;;;;;;4994816;28;20038;-77
2022/04/23 01:34:31;;;;;;;4.38;3.40;;;;;;;;;;5027488;28;20026;-77
2022/04/23 01:36:57;;;;;;;5.15;3.38;;;;;;;;;;5010701;28;20034;-77
2022/04/23 01:39:22;;;;;;;4.43;3.63;;;;;;;;;;5011011;28;20030;-77
2022/04/23 01:41:48;;;;;;;3.75;3.20;;;;;;;;;;4994704;28;20037;-77
2022/04/23 01:44:14;;;;;;;4.43;3.08;;;;;;;;;;4978131;28;20049;-77
2022/04/23 01:46:39;;;;;;;3.53;3.13;;;;;;;;;;4994709;28;20038;-77
2022/04/23 01:49:05;;;;;;;3.75;2.88;;;;;;;;;;4994032;28;20424;-77
2022/04/23 01:51:30;;;;;;;3.70;3.25;;;;;;;;;;5027541;28;20124;-77
2022/04/23 01:53:59;;;;;;;4.15;2.90;;;;;;;;;;5011031;28;20388;-77
2022/04/23 01:56:25;;;;;;;3.63;3.20;;;;;;;;;;5010571;28;20506;-78
2022/04/23 01:58:51;;;;;;;3.65;2.78;;;;;;;;;;5026937;28;20038;-78
2022/04/23 02:01:17;;;;;;;3.70;3.30;;;;;;;;;;5027003;28;20072;-77
2022/04/23 02:03:43;;;;;;;4.85;3.50;;;;;;;;;;5026691;28;20030;-77
2022/04/23 02:06:08;;;;;;;4.75;3.70;;;;;;;;;;5010591;28;20492;-77
2022/04/23 02:08:34;;;;;;;3.88;3.17;;;;;;;;;;5026647;28;20048;-78
2022/04/23 02:10:59;;;;;;;3.90;3.10;;;;;;;;;;5026973;28;20096;-77
2022/04/23 02:13:26;;;;;;;4.20;3.17;;;;;;;;;;5027041;28;20408;-77
2022/04/23 02:15:52;;;;;;;3.85;3.22;;;;;;;;;;5010466;28;20096;-77
2022/04/23 02:18:18;;;;;;;4.05;3.65;;;;;;;;;;5026672;28;20046;-77
2022/04/23 02:20:43;;;;;;;3.42;2.90;;;;;;;;;;5010666;28;20026;-78
2022/04/23 02:23:09;;;;;;;4.53;3.50;;;;;;;;;;5010641;28;20037;-77
2022/04/23 02:25:35;;;;;;;5.00;3.60;;;;;;;;;;5026762;28;20045;-77
2022/04/23 02:28:00;;;;;;;5.03;3.45;;;;;;;;;;5010381;28;20073;-77
2022/04/23 02:30:26;;;;;;;3.70;3.35;;;;;;;;;;5010324;28;20069;-78
2022/04/23 02:32:51;;;;;;;3.80;3.10;;;;;;;;;;5010467;28;20113;-77
2022/04/23 02:35:17;;;;;;;3.95;3.15;;;;;;;;;;5026714;28;20076;-78
2022/04/23 02:37:45;;;;;;;3.60;2.97;;;;;;;;;;5010348;28;20044;-77
2022/04/23 02:40:11;;;;;;;3.78;2.88;;;;;;;;;;4994392;28;20056;-78
2022/04/23 02:42:37;;;;;;;3.78;3.30;;;;;;;;;;4993879;28;20405;-78
2022/04/23 02:45:04;;;;;;;4.22;2.85;;;;;;;;;;4977867;28;20377;-77
2022/04/23 02:47:30;;;;;;;3.75;3.13;;;;;;;;;;4993732;28;20045;-77
2022/04/23 02:49:55;;;;;;;3.90;3.50;;;;;;;;;;5027018;28;20038;-77
2022/04/23 02:52:21;;;;;;;3.60;3.05;;;;;;;;;;5010346;28;20038;-77
2022/04/23 02:54:47;;;;;;;4.15;3.17;;;;;;;;;;5026947;28;20038;-77
2022/04/23 02:57:12;;;;;;;4.93;3.30;;;;;;;;;;5010081;28;20030;-77
2022/04/23 02:59:39;;;;;;;3.65;2.67;;;;;;;;;;5010481;28;20038;-77
2022/04/23 03:02:07;;;;;;;3.95;3.03;;;;;;;;;;5026333;28;20101;-77
2022/04/23 03:04:33;;;;;;;4.15;3.40;;;;;;;;;;5009352;28;20030;-77
2022/04/23 03:06:58;;;;;;;3.75;3.22;;;;;;;;;;5026570;28;20520;-77
2022/04/23 03:09:23;;;;;;;3.60;3.15;;;;;;;;;;5026705;28;20042;-77
2022/04/23 03:11:49;;;;;;;3.72;2.97;;;;;;;;;;5026443;28;20420;-77
2022/04/23 03:14:15;;;;;;;4.38;3.60;;;;;;;;;;5026446;28;20037;-78
2022/04/23 03:16:41;;;;;;;4.78;3.15;;;;;;;;;;5026177;28;20042;-77
2022/04/23 03:19:06;;;;;;;3.88;3.35;;;;;;;;;;5010144;28;20068;-77
2022/04/23 03:21:32;;;;;;;3.72;3.35;;;;;;;;;;5012747;28;20077;-77
2022/04/23 03:23:57;;;;;;;3.90;3.45;;;;;;;;;;4997262;28;20053;-77
2022/04/23 03:26:23;;;;;;;3.78;3.22;;;;;;;;;;5013402;28;20037;-77
2022/04/23 03:28:48;;;;;;;4.13;3.25;;;;;;;;;;5013319;28;20045;-77
2022/04/23 03:31:14;;;;;;;3.92;3.22;;;;;;;;;;5029518;28;20416;-77
2022/04/23 03:33:39;;;;;;;3.92;3.08;;;;;;;;;;5030033;28;20382;-77
2022/04/23 03:36:05;;;;;;;3.97;3.55;;;;;;;;;;5013195;28;20507;-78
2022/04/23 03:38:31;;;;;;;4.65;3.35;;;;;;;;;;5013233;28;20062;-77
2022/04/23 03:40:56;;;;;;;3.30;2.90;;;;;;;;;;5025863;28;20057;-78
2022/04/23 03:43:24;;;;;;;5.25;3.30;;;;;;;;;;4993285;28;20054;-77
2022/04/23 03:45:49;;;;;;;3.20;2.70;;;;;;;;;;5009383;28;20031;-77
2022/04/23 03:48:15;;;;;;;3.42;3.00;;;;;;;;;;5015021;28;20424;-77
2022/04/23 03:50:41;;;;;;;4.10;3.05;;;;;;;;;;5010047;28;20180;-77
2022/04/23 03:53:07;;;;;;;3.70;3.00;;;;;;;;;;5009896;28;20050;-77
2022/04/23 03:55:33;;;;;;;3.33;3.03;;;;;;;;;;5025924;28;20030;-77
2022/04/23 03:57:58;;;;;;;4.07;3.17;;;;;;;;;;5025340;28;20118;-77
2022/04/23 04:00:24;;;;;;;3.75;3.20;;;;;;;;;;5008187;28;20110;-77
2022/04/23 04:02:50;;;;;;;4.15;3.00;;;;;;;;;;5024503;28;20038;-77
2022/04/23 04:05:15;;;;;;;3.80;3.03;;;;;;;;;;5008269;28;20038;-77
2022/04/23 04:07:44;;;;;;;4.28;3.33;;;;;;;;;;5008651;28;20045;-77
2022/04/23 04:10:11;;;;;;;3.75;3.20;;;;;;;;;;5008019;28;20568;-77
2022/04/23 04:12:37;;;;;;;3.38;3.08;;;;;;;;;;5011866;28;20060;-77
2022/04/23 04:15:04;;;;;;;3.80;3.40;;;;;;;;;;5012205;28;20037;-77
2022/04/23 04:17:29;;;;;;;3.28;2.97;;;;;;;;;;5012608;28;20583;-77
2022/04/23 04:19:55;;;;;;;4.03;3.10;;;;;;;;;;5028773;28;20034;-77
2022/04/23 04:22:23;;;;;;;5.00;3.70;;;;;;;;;;5012390;28;20053;-77
2022/04/23 04:24:48;;;;;;;3.33;2.83;;;;;;;;;;5029046;28;20405;-77
2022/04/23 04:27:14;;;;;;;3.85;3.45;;;;;;;;;;4995925;28;20042;-77
2022/04/23 04:29:40;;;;;;;3.60;2.92;;;;;;;;;;5028950;28;20033;-78
2022/04/23 04:32:07;;;;;;;3.65;2.70;;;;;;;;;;5012131;28;20038;-76
2022/04/23 04:34:33;;;;;;;3.20;2.72;;;;;;;;;;5012441;28;20089;-77
2022/04/23 04:37:11;;;;;;;3.67;3.08;;;;;;;;;;5028337;28;20408;-77
2022/04/23 04:39:37;;;;;;;3.20;2.72;;;;;;;;;;5011816;28;20504;-77
2022/04/23 04:42:03;;;;;;;3.55;3.17;;;;;;;;;;5012063;28;20026;-77
2022/04/23 04:44:29;;;;;;;4.68;3.30;;;;;;;;;;4995580;28;20034;-77
2022/04/23 04:46:54;;;;;;;3.30;3.00;;;;;;;;;;4995382;28;20040;-77
2022/04/23 04:49:22;;;;;;;3.40;2.75;;;;;;;;;;4995404;28;20038;-77
2022/04/23 04:51:48;;;;;;;3.80;3.40;;;;;;;;;;5027896;28;20189;-78
2022/04/23 04:54:14;;;;;;;4.13;3.30;;;;;;;;;;5011890;28;20172;-78
2022/04/23 04:56:39;;;;;;;3.28;2.85;;;;;;;;;;5027897;28;20400;-77
2022/04/23 04:59:05;;;;;;;3.88;2.90;;;;;;;;;;5011538;28;20682;-78
2022/04/23 05:01:30;;;;;;;3.30;2.83;;;;;;;;;;5011683;28;20085;-78
2022/04/23 05:03:56;;;;;;;3.25;2.83;;;;;;;;;;5028197;28;20559;-77
2022/04/23 05:06:21;;;;;;;3.80;3.05;;;;;;;;;;5027597;28;20511;-77
2022/04/23 05:08:47;;;;;;;3.00;2.45;;;;;;;;;;5011622;28;20111;-77
2022/04/23 05:11:12;;;;;;;6.97;3.38;;;;;;;;;;5027335;28;20041;-76
2022/04/23 05:13:38;;;;;;;10.82;3.75;;;;;;;;;;5025433;28;20038;-77
2022/04/23 05:16:07;;;;;;;14.85;3.72;;;;;;;;;;5008908;28;20061;-76
2022/04/23 05:18:33;;;;;;;5.88;3.45;;;;;;;;;;5011416;28;20068;-76
2022/04/23 05:20:59;;;;;;;7.25;3.28;;;;;;;;;;4995017;28;20091;-77
2022/04/23 05:23:25;;;;;;;15.02;4.07;;;;;;;;;;5027959;28;20436;-78
2022/04/23 05:25:51;;;;;;;6.18;3.38;;;;;;;;;;5011350;28;20033;-76
2022/04/23 05:28:16;;;;;;;6.95;3.63;;;;;;;;;;5011360;28;20037;-76
2022/04/23 05:30:42;;;;;;;6.00;3.20;;;;;;;;;;5011967;28;20374;-77
2022/04/23 05:33:08;;;;;;;10.27;3.85;;;;;;;;;;5027845;28;20114;-77
2022/04/23 05:35:33;;;;;;;4.35;3.08;;;;;;;;;;5012061;28;20492;-76
2022/04/23 05:38:05;;;;;;;6.70;3.30;;;;;;;;;;4995540;28;20411;-76
2022/04/23 05:40:30;;;;;;;5.45;4.35;;;;;;;;;;4979156;28;20077;-76
2022/04/23 05:42:58;;;;;;;5.03;3.53;;;;;;;;;;4994572;28;20042;-76
2022/04/23 05:45:27;;;;;;;4.70;3.10;;;;;;;;;;4979600;28;20046;-76
2022/04/23 05:47:53;;;;;;;7.18;3.28;;;;;;;;;;5010602;28;20034;-75
2022/04/23 05:50:19;;;;;;;4.78;3.22;;;;;;;;;;5027534;28;20087;-76
2022/04/23 05:52:44;;;;;;;7.80;3.40;;;;;;;;;;5010871;28;20030;-76
2022/04/23 05:55:10;;;;;;;6.60;3.83;;;;;;;;;;5027028;28;20045;-75
2022/04/23 05:57:35;;;;;;;7.57;3.35;;;;;;;;;;5010877;28;20121;-76
2022/04/23 06:00:01;;;;;;;8.75;3.92;;;;;;;;;;5010606;28;20042;-75
2022/04/23 06:02:27;;;;;;;8.23;3.95;;;;;;;;;;5010604;28;20032;-76
2022/04/23 06:04:52;;;;;;;11.55;4.75;;;;;;;;;;5026986;28;20069;-76
2022/04/23 06:07:18;;;;;;;14.27;4.20;;;;;;;;;;5043712;28;20113;-75
2022/04/23 06:09:44;;;;;;;14.18;4.25;;;;;;;;;;5012239;28;20105;-76
2022/04/23 06:12:10;;;;;;;7.50;3.88;;;;;;;;;;5027207;28;20111;-76
2022/04/23 06:14:36;;;;;;;5.22;3.72;;;;;;;;;;5027056;28;20048;-75
2022/04/23 06:17:05;;;;;;;8.20;3.63;;;;;;;;;;5010474;28;20400;-75
2022/04/23 06:19:31;;;;;;;9.68;3.80;;;;;;;;;;5011190;28;20069;-76
2022/04/23 06:21:59;;;;;;;9.52;4.30;;;;;;;;;;5010471;28;20036;-75
2022/04/23 06:24:25;;;;;;;5.65;4.20;;;;;;;;;;5026641;28;20042;-75
2022/04/23 06:26:50;;;;;;;8.57;4.43;;;;;;;;;;5027069;28;20137;-75
2022/04/23 06:29:16;;;;;;;6.05;4.15;;;;;;;;;;5010341;28;20046;-75
2022/04/23 06:31:41;;;;;;;7.95;3.63;;;;;;;;;;5026911;28;20393;-76
2022/04/23 06:34:07;;;;;;;11.98;5.05;;;;;;;;;;5010077;28;20510;-75
2022/04/23 06:36:34;;;;;;;8.68;4.05;;;;;;;;;;5010483;28;20026;-76
2022/04/23 06:38:59;;;;;;;7.13;3.70;;;;;;;;;;5026874;28;20101;-76
2022/04/23 06:41:25;;;;;;;6.38;3.53;;;;;;;;;;4977849;28;20029;-76
2022/04/23 06:43:52;;;;;;;6.05;3.75;;;;;;;;;;4978094;28;20045;-76
2022/04/23 06:46:18;;;;;;;7.20;3.60;;;;;;;;;;4994628;28;20034;-76
2022/04/23 06:48:43;;;;;;;5.78;3.92;;;;;;;;;;5009927;28;20053;-75
2022/04/23 06:51:08;;;;;;;8.45;3.28;;;;;;;;;;5043262;28;20042;-76
2022/04/23 06:53:34;;;;;;;11.68;4.25;;;;;;;;;;5026727;28;20034;-77
2022/04/23 06:56:01;;;;;;;15.68;4.57;;;;;;;;;;5013191;28;20033;-78
2022/04/23 06:58:26;;;;;;;10.00;4.22;;;;;;;;;;5030188;28;20069;-77
2022/04/23 07:00:52;;;;;;;5.75;3.75;;;;;;;;;;5013984;28;20114;-77
2022/04/23 07:03:18;;;;;;;6.57;3.78;;;;;;;;;;5013596;28;20068;-78
2022/04/23 07:05:44;;;;;;;7.20;4.13;;;;;;;;;;5030214;28;20109;-78
2022/04/23 07:08:09;;;;;;;6.53;4.40;;;;;;;;;;5030359;28;20493;-77
2022/04/23 07:10:35;;;;;;;5.68;4.57;;;;;;;;;;5030055;28;20083;-77
2022/04/23 07:13:00;;;;;;;6.72;5.25;;;;;;;;;;5029536;28;20416;-77
2022/04/23 07:15:27;;;;;;;7.05;4.85;;;;;;;;;;4997238;28;20052;-77
2022/04/23 07:17:53;;;;;;;10.15;4.97;;;;;;;;;;5011612;28;20050;-76
2022/04/23 07:20:18;;;;;;;12.88;6.10;;;;;;;;;;5029993;28;20034;-76
2022/04/23 07:25:32;;;;;;;7.50;5.32;;;;;;;;;;5027651;28;20113;-76
2022/04/23 07:27:58;;;;;;;6.97;5.00;;;;;;;;;;5013609;28;20066;-76
2022/04/23 07:30:25;;;;;;;8.38;4.53;;;;;;;;;;5013357;28;20061;-76
2022/04/23 07:32:52;;;;;;;9.43;5.32;;;;;;;;;;5029504;28;20034;-76
2022/04/23 07:38:19;;;;;;;6.70;4.70;;;;;;;;;;5013370;28;20060;-76
2022/04/23 07:40:45;;;;;;;9.30;5.53;;;;;;;;;;5026169;28;20062;-76
2022/04/23 07:43:12;;;;;;;11.00;9.20;;;;;;;;;;4993959;28;20069;-76
2022/04/23 07:45:38;;;;;;;25.23;20.27;;;;;;;;;;5009400;28;20070;-76
2022/04/23 07:48:07;;;;;;;30.15;27.08;;;;;;;;;;5000279;28;20038;-76
2022/04/23 07:50:33;;;;;;;37.33;33.20;;;;;;;;;;5013140;28;20184;-76
2022/04/23 07:52:59;;;;;;;34.40;30.77;;;;;;;;;;5028492;28;20066;-76
2022/04/23 07:55:24;;;;;;;33.78;30.33;;;;;;;;;;5028908;28;20097;-76
2022/04/23 07:57:49;;;;;;;35.97;32.03;;;;;;;;;;4982266;28;20048;-76
2022/04/23 08:00:15;;;;;;;41.65;37.28;;;;;;;;;;5033772;28;20042;-76
2022/04/23 08:02:41;;;;;;;53.28;47.10;;;;;;;;;;5029402;28;20511;-76
2022/04/23 08:05:09;;;;;;;62.53;55.67;;;;;;;;;;5027839;28;20451;-76
2022/04/23 08:07:34;;;;;;;67.68;57.17;;;;;;;;;;5010997;28;20034;-76
2022/04/23 08:10:01;;;;;;;70.80;61.05;;;;;;;;;;5012011;28;20104;-76
2022/04/23 08:12:26;;;;;;;76.38;66.28;;;;;;;;;;5044448;28;20045;-76
2022/04/23 08:14:51;;;;;;;80.47;68.07;;;;;;;;;;5028523;28;20037;-76
2022/04/23 08:17:17;;;;;;;79.00;66.88;;;;;;;;;;5012201;28;20133;-76
2022/04/23 08:19:42;;;;;;;75.88;66.47;;;;;;;;;;5028675;28;20030;-76
2022/04/23 08:22:08;;;;;;;76.80;64.93;;;;;;;;;;5012356;28;20046;-76
2022/04/23 08:24:33;;;;;;;76.32;65.00;;;;;;;;;;5045546;28;20064;-76
2022/04/23 08:26:58;;;;;;;76.72;66.53;;;;;;;;;;5011964;28;20069;-76
2022/04/23 08:32:08;;;;;;;72.55;60.15;;;;;;;;;;5000522;28;20034;-76
2022/04/23 08:34:33;;;;;;;73.78;60.67;;;;;;;;;;4995385;28;20514;-76
2022/04/23 08:36:59;;;;;;;62.45;54.75;;;;;;;;;;4995648;28;20643;-76
2022/04/23 08:39:24;;;;;;;63.88;56.03;;;;;;;;;;5011825;28;20040;-76
2022/04/23 08:41:49;;;;;;;62.33;52.63;;;;;;;;;;5011965;28;20088;-76
2022/04/23 08:44:16;;;;;;;59.97;50.35;;;;;;;;;;5011534;28;20574;-76
2022/04/23 08:46:41;;;;;;;56.58;50.58;;;;;;;;;;5009461;28;20041;-76
2022/04/23 08:49:16;;;;;;;56.67;47.42;;;;;;;;;;5025214;28;20038;-76
2022/04/23 08:51:43;;;;;;;51.92;43.53;;;;;;;;;;5028133;28;20048;-76
2022/04/23 08:54:10;;;;;;;50.47;42.63;;;;;;;;;;5013137;28;20064;-76
2022/04/23 08:56:36;;;;;;;45.72;39.95;;;;;;;;;;5008277;28;20062;-76
2022/04/23 08:59:02;;;;;;;39.97;33.60;;;;;;;;;;5007606;28;20062;-76
2022/04/23 09:01:30;;;;;;;38.42;31.45;;;;;;;;;;4991226;28;20042;-76
2022/04/23 09:03:56;;;;;;;32.83;29.25;;;;;;;;;;5007903;28;20540;-76
2022/04/23 09:06:21;;;;;;;35.13;28.08;;;;;;;;;;5037041;28;20069;-76
2022/04/23 09:09:05;;;;;;;29.55;26.42;;;;;;;;;;5012792;28;20040;-76
2022/04/23 09:11:37;;;;;;;30.80;24.27;;;;;;;;;;5032371;28;20060;-76
2022/04/23 09:14:03;;;;;;;28.42;23.88;;;;;;;;;;5013841;28;20029;-76
2022/04/23 09:24:45;;;;;;;21.50;19.20;;;;;;;;;;5027684;28;20037;-76
2022/04/23 09:27:11;;;;;;;26.15;18.98;;;;;;;;;;5027359;28;20069;-76
2022/04/23 09:29:36;;;;;;;21.33;17.58;;;;;;;;;;5010897;28;20040;-76
2022/04/23 09:32:19;;;;;;;18.60;16.52;;;;;;;;;;5044046;28;20030;-76
2022/04/23 09:34:44;;;;;;;17.17;15.38;;;;;;;;;;5026940;28;20052;-76
2022/04/23 09:37:10;;;;;;;17.42;15.65;;;;;;;;;;5027397;28;20038;-76
2022/04/23 09:39:36;;;;;;;16.30;14.48;;;;;;;;;;5012474;28;20038;-76
2022/04/23 09:42:11;;;;;;;15.40;13.68;;;;;;;;;;5010794;28;20038;-76
2022/04/23 09:44:36;;;;;;;15.50;13.90;;;;;;;;;;5010919;28;20038;-76
2022/04/23 09:47:02;;;;;;;16.70;13.38;;;;;;;;;;4994310;28;20042;-76
2022/04/23 09:49:27;;;;;;;13.68;11.70;;;;;;;;;;5029434;28;20064;-76
2022/04/23 09:52:03;;;;;;;16.70;12.65;;;;;;;;;;5014519;28;20385;-76
2022/04/23 09:54:30;;;;;;;12.57;11.00;;;;;;;;;;5014071;28;20372;-76
2022/04/23 09:56:55;;;;;;;14.07;11.68;;;;;;;;;;5029983;28;20072;-76
2022/04/23 09:59:21;;;;;;;12.15;9.77;;;;;;;;;;4997599;28;20120;-76
2022/04/23 10:01:47;;;;;;;17.58;10.07;;;;;;;;;;5030080;28;20038;-76
2022/04/23 10:04:13;;;;;;;10.98;9.85;;;;;;;;;;5012381;28;20029;-76
2022/04/23 10:06:39;;;;;;;13.07;10.82;;;;;;;;;;5013243;28;20033;-76
2022/04/23 10:09:05;;;;;;;12.40;10.07;;;;;;;;;;5030289;28;20582;-76
2022/04/23 10:11:31;;;;;;;11.32;9.25;;;;;;;;;;5030238;28;20045;-76
2022/04/23 10:14:03;;;;;;;10.45;9.38;;;;;;;;;;4998069;28;20404;-76
2022/04/23 10:16:29;;;;;;;11.23;9.05;;;;;;;;;;5027075;28;20034;-76
2022/04/23 10:18:55;;;;;;;11.82;9.02;;;;;;;;;;5027164;28;20050;-76
2022/04/23 10:21:40;;;;;;;10.10;9.10;;;;;;;;;;5010051;28;20110;-76
2022/04/23 10:24:14;;;;;;;9.02;8.13;;;;;;;;;;4992055;28;20086;-76
2022/04/23 10:26:49;;;;;;;10.73;9.05;;;;;;;;;;4990359;28;20057;-76
2022/04/23 10:29:20;;;;;;;11.07;8.52;;;;;;;;;;5007384;28;20125;-76
2022/04/23 10:32:11;;;;;;;11.00;8.10;;;;;;;;;;4995046;28;20121;-77
2022/04/23 10:34:38;;;;;;;12.88;8.15;;;;;;;;;;4994359;28;20062;-76
2022/04/23 10:37:17;;;;;;;13.05;8.20;;;;;;;;;;5026180;28;20117;-76
2022/04/23 10:40:02;;;;;;;12.43;7.10;;;;;;;;;;5002740;28;20121;-76
2022/04/23 10:42:31;;;;;;;12.65;7.05;;;;;;;;;;5014979;28;20521;-76
2022/04/23 10:44:57;;;;;;;9.90;7.13;;;;;;;;;;4997190;28;20036;-76
2022/04/23 10:47:34;;;;;;;17.65;6.38;;;;;;;;;;5013692;28;20050;-76
2022/04/23 10:50:19;;;;;;;8.27;6.72;;;;;;;;;;5030491;28;20030;-76
2022/04/23 10:52:49;;;;;;;8.15;6.05;;;;;;;;;;5014403;28;20056;-76
2022/04/23 10:55:15;;;;;;;10.73;6.25;;;;;;;;;;5013963;28;20038;-76
2022/04/23 10:57:50;;;;;;;8.63;5.85;;;;;;;;;;4997425;28;20069;-76
2022/04/23 11:00:17;;;;;;;8.43;5.53;;;;;;;;;;4997697;28;20044;-76
2022/04/23 11:02:45;;;;;;;6.07;5.47;;;;;;;;;;5030409;28;20030;-76
2022/04/23 11:13:52;;;;;;;5.72;4.75;;;;;;;;;;5014268;28;20492;-76
2022/04/23 11:16:19;;;;;;;5.80;4.55;;;;;;;;;;5030524;28;20042;-76
2022/04/23 11:18:45;;;;;;;5.78;5.00;;;;;;;;;;4997417;28;20049;-77
2022/04/23 11:21:26;;;;;;;6.18;4.18;;;;;;;;;;5013722;28;20037;-76
2022/04/23 11:23:58;;;;;;;5.88;4.63;;;;;;;;;;5013776;28;20042;-76
2022/04/23 11:26:45;;;;;;;5.63;4.80;;;;;;;;;;5013337;28;20415;-76
2022/04/23 11:29:11;;;;;;;5.80;4.40;;;;;;;;;;5013294;28;20084;-77
2022/04/23 11:31:36;;;;;;;5.68;4.90;;;;;;;;;;5013461;28;20447;-76
2022/04/23 11:34:02;;;;;;;5.70;3.92;;;;;;;;;;5013128;28;20042;-76
2022/04/23 11:36:28;;;;;;;5.65;4.30;;;;;;;;;;5013456;28;20029;-76
2022/04/23 11:38:57;;;;;;;6.35;4.28;;;;;;;;;;5012630;28;20038;-76
2022/04/23 11:41:27;;;;;;;6.53;4.45;;;;;;;;;;4979705;28;20034;-76
2022/04/23 11:43:52;;;;;;;5.95;4.03;;;;;;;;;;5013198;28;20061;-76
2022/04/23 11:46:17;;;;;;;4.68;3.65;;;;;;;;;;5014110;28;20492;-76
2022/04/23 11:48:47;;;;;;;5.30;3.45;;;;;;;;;;5008262;28;20053;-76
2022/04/23 11:51:14;;;;;;;4.57;3.75;;;;;;;;;;5016939;28;20049;-76
2022/04/23 11:53:58;;;;;;;5.75;4.00;;;;;;;;;;4999977;28;20048;-76
2022/04/23 11:56:33;;;;;;;5.38;3.45;;;;;;;;;;5017453;28;20029;-76
2022/04/23 11:59:06;;;;;;;4.38;3.85;;;;;;;;;;5034073;28;20045;-76
2022/04/23 12:01:32;;;;;;;3.92;3.17;;;;;;;;;;5016231;28;20087;-76
2022/04/23 12:03:58;;;;;;;4.35;3.45;;;;;;;;;;4999677;28;20496;-77
2022/04/23 12:06:24;;;;;;;4.40;3.38;;;;;;;;;;5032281;28;20439;-76
2022/04/23 12:08:49;;;;;;;3.67;3.13;;;;;;;;;;5015568;28;20034;-77
2022/04/23 12:11:27;;;;;;;5.70;2.97;;;;;;;;;;4983469;28;20041;-76
2022/04/23 12:13:53;;;;;;;4.72;3.10;;;;;;;;;;4985043;28;20459;-76
2022/04/23 12:16:38;;;;;;;4.57;2.92;;;;;;;;;;4995920;28;20033;-76
2022/04/23 12:19:04;;;;;;;3.67;3.00;;;;;;;;;;5012583;28;20042;-76
2022/04/23 12:21:30;;;;;;;4.10;2.90;;;;;;;;;;4996260;28;20059;-76
2022/04/23 12:23:56;;;;;;;3.30;3.00;;;;;;;;;;4996374;28;20459;-76
2022/04/23 12:26:22;;;;;;;4.15;2.83;;;;;;;;;;4995854;28;20057;-76
2022/04/23 12:42:26;;;;;;;3.33;3.03;;;;;;;;;;4982859;28;20046;-76
2022/04/23 12:44:53;;;;;;;5.03;2.55;;;;;;;;;;4992644;28;20413;-76
2022/04/23 12:47:35;;;;;;;3.88;2.72;;;;;;;;;;4994493;28;20046;-77
2022/04/23 12:50:07;;;;;;;2.80;2.20;;;;;;;;;;5015938;28;20034;-77
2022/04/23 12:52:43;;;;;;;;;;;;;;;;;;4999724;28;20487;-76
2022/04/23 12:55:18;;;;;;;3.92;2.70;;;;;;;;;;5031594;28;19960;-77
2022/04/23 12:57:43;;;;;;;3.58;2.58;;;;;;;;;;4997258;28;20496;-77
2022/04/23 13:00:11;;;;;;;2.78;2.38;;;;;;;;;;5011638;28;20100;-77
2022/04/23 13:02:37;;;;;;;3.35;2.58;;;;;;;;;;5011539;28;20041;-77
2022/04/23 13:05:03;;;;;;;2.80;2.35;;;;;;;;;;5011054;28;20038;-77
2022/04/23 13:10:12;;;;;;;4.15;2.60;;;;;;;;;;5025787;28;20037;-77
2022/04/23 13:12:37;;;;;;;3.30;2.60;;;;;;;;;;5044072;28;20099;-77
2022/04/23 13:15:04;;;;;;;3.25;2.60;;;;;;;;;;5011175;28;20044;-77
2022/04/23 13:17:30;;;;;;;3.35;2.33;;;;;;;;;;5027432;28;20042;-77
2022/04/23 13:19:55;;;;;;;3.13;2.03;;;;;;;;;;5027031;28;20412;-77
2022/04/23 13:22:21;;;;;;;2.47;2.08;;;;;;;;;;5028245;28;20042;-77
2022/04/23 13:24:48;;;;;;;3.08;2.28;;;;;;;;;;5010865;28;20042;-77
2022/04/23 13:27:14;;;;;;;3.47;2.70;;;;;;;;;;5026863;28;20085;-77
2022/04/23 13:29:39;;;;;;;2.85;2.20;;;;;;;;;;5027942;28;20038;-76
2022/04/23 13:32:05;;;;;;;3.45;2.55;;;;;;;;;;5011348;28;20117;-77
2022/04/23 13:34:30;;;;;;;4.10;2.30;;;;;;;;;;5026670;28;20492;-77
2022/04/23 13:36:56;;;;;;;3.30;2.25;;;;;;;;;;5011107;28;20457;-77
2022/04/23 13:39:21;;;;;;;2.90;2.38;;;;;;;;;;5027320;28;20048;-77
2022/04/23 13:41:47;;;;;;;2.88;2.25;;;;;;;;;;4978366;28;20046;-77
2022/04/23 13:44:14;;;;;;;3.05;2.35;;;;;;;;;;4978904;28;20038;-77
2022/04/23 13:46:39;;;;;;;4.03;2.40;;;;;;;;;;4978779;28;20034;-77
2022/04/23 13:49:05;;;;;;;4.03;2.08;;;;;;;;;;4977925;28;20451;-77
2022/04/23 13:51:30;;;;;;;3.83;2.67;;;;;;;;;;5007469;28;20034;-77
2022/04/23 13:53:56;;;;;;;3.92;2.13;;;;;;;;;;5007787;28;20042;-77
2022/04/23 13:56:21;;;;;;;3.65;2.22;;;;;;;;;;4974453;28;20181;-76
2022/04/23 13:58:46;;;;;;;4.07;2.20;;;;;;;;;;4990874;28;20497;-77
2022/04/23 14:01:12;;;;;;;4.28;2.17;;;;;;;;;;4991220;28;20034;-77
2022/04/23 14:11:49;;;;;;;3.13;2.10;;;;;;;;;;5008702;28;20031;-77
2022/04/23 14:14:14;;;;;;;3.40;2.08;;;;;;;;;;5041158;28;20041;-77
2022/04/23 14:16:43;;;;;;;4.10;2.50;;;;;;;;;;5026712;28;20030;-77
2022/04/23 14:19:08;;;;;;;4.85;2.08;;;;;;;;;;5009968;28;20530;-77
2022/04/23 14:21:34;;;;;;;2.97;2.40;;;;;;;;;;5027129;28;20038;-77
2022/04/23 14:23:59;;;;;;;2.40;1.85;;;;;;;;;;5025661;28;20041;-77
2022/04/23 14:26:27;;;;;;;4.57;2.38;;;;;;;;;;5026265;28;20049;-76
2022/04/23 14:28:53;;;;;;;3.50;2.10;;;;;;;;;;5027062;28;20060;-77
2022/04/23 14:31:19;;;;;;;4.93;2.60;;;;;;;;;;5010356;28;20412;-76
2022/04/23 14:33:44;;;;;;;5.70;2.30;;;;;;;;;;5009877;28;20037;-76
2022/04/23 14:36:09;;;;;;;2.35;1.60;;;;;;;;;;5026838;28;20030;-77
2022/04/23 14:38:37;;;;;;;8.45;2.60;;;;;;;;;;5010288;28;20045;-77
2022/04/23 14:41:03;;;;;;;3.22;2.45;;;;;;;;;;5010372;28;20073;-77
2022/04/23 14:43:29;;;;;;;7.13;2.97;;;;;;;;;;4994144;28;20551;-77
2022/04/23 14:45:54;;;;;;;5.53;2.33;;;;;;;;;;4994126;28;20044;-77
2022/04/23 14:48:20;;;;;;;4.40;2.50;;;;;;;;;;4993338;28;20042;-77
2022/04/23 14:53:29;;;;;;;7.13;2.70;;;;;;;;;;5011807;28;20038;-77
2022/04/23 14:55:55;;;;;;;4.05;2.63;;;;;;;;;;5026263;28;20117;-77
2022/04/23 14:58:21;;;;;;;3.88;2.50;;;;;;;;;;5026393;28;20120;-77
2022/04/23 15:00:46;;;;;;;3.28;2.20;;;;;;;;;;5043133;28;20040;-77
2022/04/23 15:03:12;;;;;;;6.85;3.08;;;;;;;;;;5026602;28;20038;-77
2022/04/23 15:05:37;;;;;;;4.20;2.47;;;;;;;;;;5025977;28;20044;-77
2022/04/23 15:08:03;;;;;;;4.13;2.72;;;;;;;;;;5026719;28;20034;-77
2022/04/23 15:10:28;;;;;;;5.22;2.72;;;;;;;;;;5010281;28;20084;-77
2022/04/23 15:12:53;;;;;;;5.65;2.65;;;;;;;;;;5009715;28;20045;-77
2022/04/23 15:15:19;;;;;;;7.78;3.22;;;;;;;;;;5026751;28;20044;-77
2022/04/23 15:17:44;;;;;;;6.85;2.85;;;;;;;;;;5013465;28;20050;-77
2022/04/23 15:20:10;;;;;;;4.63;2.88;;;;;;;;;;5013542;28;20044;-77
2022/04/23 15:22:36;;;;;;;4.75;2.30;;;;;;;;;;5013652;28;20030;-77
2022/04/23 15:25:03;;;;;;;5.40;2.90;;;;;;;;;;5029893;28;20056;-77
2022/04/23 15:27:28;;;;;;;7.35;3.65;;;;;;;;;;5013364;28;20060;-77
2022/04/23 15:29:54;;;;;;;5.72;2.67;;;;;;;;;;5022025;28;20066;-77